UTC056J EGPH-EGHH
Flight info
| Callsign | UTC056J |
|---|---|
| Flight time | N/A |
| Altitude | 33000 |
| Route | GOSAM P600 FENIK/N0344F230 L612 ELBUS/N0354F250 L612 NAVSO/N0403F330 DCT ADZOP DCT EGTOC DCT KEPAD L151 PEPUL/N0342F230 Y322 BUGUP |
| Aircraft | B738/M-SDE2E3FGHIRWXY/LB1 |
Departure
| Time | 2026-05-05 17:15 |
|---|---|
| Airport | Edinburgh Airport (EGPH) |
Arrival
| Time | N/A |
|---|---|
| Airport | Bournemouth Airport (EGHH) |
| Time | Latitude | Longitude | Altitude | Speed | Heading |
|---|---|---|---|---|---|
| 2026-05-05 15:52 | 55.94702 | -3.36852 | 115 ft | 0 kts | 269° |
| 2026-05-05 16:50 | 55.94702 | -3.36850 | 115 ft | 2 kts | 269° |
| 2026-05-05 16:50 | 55.94701 | -3.36805 | 115 ft | 4 kts | 284° |
| 2026-05-05 16:50 | 55.94690 | -3.36762 | 115 ft | 4 kts | 310° |
| 2026-05-05 16:51 | 55.94670 | -3.36736 | 115 ft | 4 kts | 349° |
| 2026-05-05 16:51 | 55.94663 | -3.36734 | 115 ft | 0 kts | 359° |
| 2026-05-05 17:06 | 55.94693 | -3.36735 | 115 ft | 10 kts | 359° |
| 2026-05-05 17:06 | 55.94771 | -3.36767 | 115 ft | 12 kts | 335° |
| 2026-05-05 17:06 | 55.94857 | -3.36779 | 115 ft | 13 kts | 356° |
| 2026-05-05 17:06 | 55.94925 | -3.36865 | 115 ft | 13 kts | 286° |
| 2026-05-05 17:07 | 55.94895 | -3.36985 | 115 ft | 11 kts | 239° |
| 2026-05-05 17:07 | 55.94857 | -3.37101 | 115 ft | 11 kts | 239° |
| 2026-05-05 17:07 | 55.94814 | -3.37226 | 115 ft | 12 kts | 239° |
| 2026-05-05 17:07 | 55.94769 | -3.37361 | 115 ft | 13 kts | 239° |
| 2026-05-05 17:08 | 55.94725 | -3.37491 | 115 ft | 9 kts | 239° |
| 2026-05-05 17:08 | 55.94691 | -3.37589 | 115 ft | 10 kts | 239° |
| 2026-05-05 17:08 | 55.94655 | -3.37696 | 115 ft | 11 kts | 239° |
| 2026-05-05 17:08 | 55.94615 | -3.37814 | 115 ft | 11 kts | 238° |
| 2026-05-05 17:09 | 55.94592 | -3.37945 | 115 ft | 12 kts | 295° |
| 2026-05-05 17:09 | 55.94616 | -3.37978 | 113 ft | 4 kts | 329° |
| 2026-05-05 17:09 | 55.94619 | -3.37980 | 115 ft | 0 kts | 329° |
| 2026-05-05 17:13 | 55.94639 | -3.38002 | 111 ft | 8 kts | 329° |
| 2026-05-05 17:13 | 55.94683 | -3.38048 | 111 ft | 15 kts | 329° |
| 2026-05-05 17:14 | 55.94730 | -3.38063 | 114 ft | 0 kts | 35° |
| 2026-05-05 17:14 | 55.94730 | -3.38055 | 114 ft | 2 kts | 73° |
| 2026-05-05 17:14 | 55.94739 | -3.38015 | 111 ft | 0 kts | 58° |
| 2026-05-05 17:15 | 55.94771 | -3.37926 | 113 ft | 45 kts | 58° |
| 2026-05-05 17:15 | 55.95152 | -3.36777 | 149 ft | 158 kts | 60° |
| 2026-05-05 17:15 | 55.95781 | -3.34808 | 936 ft | 198 kts | 62° |
| 2026-05-05 17:15 | 55.96674 | -3.32791 | 1988 ft | 220 kts | 46° |
| 2026-05-05 17:16 | 55.97806 | -3.30778 | 2801 ft | 238 kts | 46° |
| 2026-05-05 17:16 | 55.98989 | -3.28778 | 3916 ft | 239 kts | 41° |
| 2026-05-05 17:16 | 56.00517 | -3.27451 | 4939 ft | 251 kts | 8° |
| 2026-05-05 17:16 | 56.02250 | -3.27970 | 5709 ft | 258 kts | 335° |
| 2026-05-05 17:17 | 56.03531 | -3.30117 | 5982 ft | 264 kts | 301° |
| 2026-05-05 17:17 | 56.03938 | -3.33339 | 5996 ft | 274 kts | 266° |
| 2026-05-05 17:17 | 56.03339 | -3.36604 | 6011 ft | 275 kts | 246° |
| 2026-05-05 17:17 | 56.02609 | -3.39730 | 5997 ft | 276 kts | 251° |
| 2026-05-05 17:18 | 56.01985 | -3.43015 | 5993 ft | 276 kts | 254° |
| 2026-05-05 17:18 | 56.01434 | -3.46291 | 5988 ft | 276 kts | 256° |
| 2026-05-05 17:18 | 56.00941 | -3.49597 | 5984 ft | 275 kts | 257° |
| 2026-05-05 17:18 | 56.00465 | -3.52922 | 6003 ft | 277 kts | 257° |
| 2026-05-05 17:19 | 55.99986 | -3.56292 | 6637 ft | 280 kts | 257° |
| 2026-05-05 17:19 | 55.99509 | -3.59637 | 7923 ft | 276 kts | 257° |
| 2026-05-05 17:19 | 55.99038 | -3.62935 | 9059 ft | 278 kts | 257° |
| 2026-05-05 17:19 | 55.98558 | -3.66288 | 10163 ft | 280 kts | 257° |
| 2026-05-05 17:20 | 55.98061 | -3.69753 | 10998 ft | 294 kts | 257° |
| 2026-05-05 17:20 | 55.97550 | -3.73314 | 11801 ft | 304 kts | 257° |
| 2026-05-05 17:20 | 55.97028 | -3.76941 | 12802 ft | 308 kts | 257° |
| 2026-05-05 17:20 | 55.96484 | -3.80697 | 13912 ft | 310 kts | 257° |
| 2026-05-05 17:21 | 55.95941 | -3.84457 | 14900 ft | 316 kts | 257° |
| 2026-05-05 17:21 | 55.95386 | -3.88285 | 15908 ft | 321 kts | 257° |
| 2026-05-05 17:21 | 55.94822 | -3.92159 | 16920 ft | 325 kts | 257° |
| 2026-05-05 17:22 | 55.93262 | -3.99633 | 18746 ft | 340 kts | 232° |
| 2026-05-05 17:22 | 55.91386 | -4.02451 | 19710 ft | 349 kts | 217° |
| 2026-05-05 17:22 | 55.89352 | -4.04855 | 20588 ft | 354 kts | 217° |
| 2026-05-05 17:22 | 55.87322 | -4.07384 | 21406 ft | 358 kts | 219° |
| 2026-05-05 17:23 | 55.85357 | -4.10093 | 22199 ft | 362 kts | 221° |
| 2026-05-05 17:23 | 55.83423 | -4.12989 | 22985 ft | 365 kts | 223° |
| 2026-05-05 17:23 | 55.81498 | -4.15991 | 23689 ft | 371 kts | 224° |
| 2026-05-05 17:23 | 55.79549 | -4.19058 | 24025 ft | 371 kts | 224° |
| 2026-05-05 17:24 | 55.77584 | -4.21988 | 24059 ft | 376 kts | 219° |
| 2026-05-05 17:24 | 55.75412 | -4.24676 | 24085 ft | 375 kts | 214° |
| 2026-05-05 17:24 | 55.72991 | -4.26444 | 24081 ft | 381 kts | 194° |
| 2026-05-05 17:24 | 55.70333 | -4.26688 | 24079 ft | 387 kts | 178° |
| 2026-05-05 17:25 | 55.67711 | -4.25577 | 24065 ft | 394 kts | 159° |
| 2026-05-05 17:25 | 55.66042 | -4.24122 | 24085 ft | 395 kts | 155° |
| 2026-05-05 17:25 | 55.62874 | -4.20976 | 24062 ft | 397 kts | 153° |
| 2026-05-05 17:25 | 55.60452 | -4.18498 | 24063 ft | 397 kts | 153° |
| 2026-05-05 17:26 | 55.58060 | -4.16083 | 24063 ft | 397 kts | 153° |
| 2026-05-05 17:26 | 55.55674 | -4.13716 | 24067 ft | 397 kts | 154° |
| 2026-05-05 17:26 | 55.53234 | -4.11330 | 24289 ft | 405 kts | 154° |
| 2026-05-05 17:26 | 55.50758 | -4.08924 | 25098 ft | 404 kts | 154° |
| 2026-05-05 17:27 | 55.48298 | -4.06533 | 25938 ft | 404 kts | 154° |
| 2026-05-05 17:27 | 55.45826 | -4.04132 | 26603 ft | 408 kts | 154° |
| 2026-05-05 17:27 | 55.43327 | -4.01706 | 27258 ft | 410 kts | 154° |
| 2026-05-05 17:27 | 55.40838 | -3.99290 | 28067 ft | 407 kts | 154° |
| 2026-05-05 17:28 | 55.38367 | -3.96893 | 28913 ft | 404 kts | 154° |
| 2026-05-05 17:28 | 55.35919 | -3.94522 | 29686 ft | 402 kts | 154° |
| 2026-05-05 17:28 | 55.33473 | -3.92158 | 30380 ft | 401 kts | 154° |
| 2026-05-05 17:28 | 55.31027 | -3.89799 | 31027 ft | 400 kts | 154° |
| 2026-05-05 17:29 | 55.28593 | -3.87452 | 31704 ft | 398 kts | 155° |
| 2026-05-05 17:29 | 55.26175 | -3.85123 | 32388 ft | 396 kts | 155° |
| 2026-05-05 17:29 | 55.23764 | -3.82807 | 32963 ft | 396 kts | 155° |
| 2026-05-05 17:30 | 55.18713 | -3.79236 | 33070 ft | 388 kts | 166° |
| 2026-05-05 17:30 | 55.13545 | -3.76478 | 33065 ft | 388 kts | 167° |
| 2026-05-05 17:31 | 55.08370 | -3.73721 | 33061 ft | 389 kts | 167° |
| 2026-05-05 17:31 | 55.03202 | -3.70927 | 33058 ft | 389 kts | 166° |
| 2026-05-05 17:32 | 54.98030 | -3.68115 | 33063 ft | 389 kts | 166° |
| 2026-05-05 17:32 | 54.92868 | -3.65310 | 33068 ft | 388 kts | 166° |
| 2026-05-05 17:33 | 54.87706 | -3.62511 | 33059 ft | 388 kts | 166° |
| 2026-05-05 17:33 | 54.82555 | -3.59726 | 33052 ft | 387 kts | 166° |
| 2026-05-05 17:34 | 54.77417 | -3.56958 | 33046 ft | 387 kts | 166° |
| 2026-05-05 17:34 | 54.72246 | -3.54178 | 33047 ft | 386 kts | 166° |
| 2026-05-05 17:35 | 54.67111 | -3.51424 | 33047 ft | 386 kts | 166° |
| 2026-05-05 17:35 | 54.61979 | -3.48678 | 33046 ft | 386 kts | 166° |
| 2026-05-05 17:36 | 54.56841 | -3.45936 | 33048 ft | 386 kts | 166° |
| 2026-05-05 17:36 | 54.51708 | -3.43206 | 33047 ft | 387 kts | 166° |
| 2026-05-05 17:37 | 54.46562 | -3.40474 | 33046 ft | 387 kts | 166° |
| 2026-05-05 17:37 | 54.43586 | -3.38898 | 33048 ft | 387 kts | 166° |
| 2026-05-05 17:38 | 54.38444 | -3.36181 | 33047 ft | 387 kts | 166° |
| 2026-05-05 17:38 | 54.33294 | -3.33466 | 33039 ft | 387 kts | 166° |
| 2026-05-05 17:39 | 54.28082 | -3.30725 | 33035 ft | 387 kts | 166° |
| 2026-05-05 17:39 | 54.22931 | -3.28023 | 33035 ft | 386 kts | 166° |
| 2026-05-05 17:40 | 54.17786 | -3.25489 | 33036 ft | 383 kts | 172° |
| 2026-05-05 17:40 | 54.12507 | -3.24571 | 33032 ft | 381 kts | 179° |
| 2026-05-05 17:41 | 54.07227 | -3.23839 | 33029 ft | 381 kts | 178° |
| 2026-05-05 17:41 | 54.02840 | -3.23155 | 33026 ft | 381 kts | 178° |
| 2026-05-05 17:42 | 53.96779 | -3.20799 | 33037 ft | 386 kts | 162° |
| 2026-05-05 17:42 | 53.92570 | -3.18044 | 33026 ft | 387 kts | 161° |
| 2026-05-05 17:43 | 53.87528 | -3.14709 | 33027 ft | 386 kts | 161° |
| 2026-05-05 17:43 | 53.82540 | -3.11463 | 33021 ft | 386 kts | 161° |
| 2026-05-05 17:44 | 53.77488 | -3.08212 | 33018 ft | 386 kts | 162° |
| 2026-05-05 17:44 | 53.72498 | -3.05019 | 33017 ft | 386 kts | 162° |
| 2026-05-05 17:45 | 53.67478 | -3.01817 | 33027 ft | 385 kts | 162° |
| 2026-05-05 17:45 | 53.62469 | -2.98632 | 33036 ft | 385 kts | 162° |
| 2026-05-05 17:46 | 53.57458 | -2.95452 | 33048 ft | 385 kts | 162° |
| 2026-05-05 17:46 | 53.52444 | -2.92278 | 33046 ft | 385 kts | 161° |
| 2026-05-05 17:47 | 53.47421 | -2.89107 | 33046 ft | 385 kts | 161° |
| 2026-05-05 17:47 | 53.42406 | -2.85947 | 33046 ft | 385 kts | 162° |
| 2026-05-05 17:48 | 53.37390 | -2.82794 | 33046 ft | 385 kts | 162° |
| 2026-05-05 17:48 | 53.32371 | -2.79649 | 33048 ft | 385 kts | 162° |
| 2026-05-05 17:49 | 53.27356 | -2.76513 | 33046 ft | 385 kts | 161° |
| 2026-05-05 17:49 | 53.22337 | -2.73384 | 33046 ft | 385 kts | 161° |
| 2026-05-05 17:50 | 53.17327 | -2.70269 | 33044 ft | 384 kts | 161° |
| 2026-05-05 17:50 | 53.12321 | -2.67164 | 33044 ft | 384 kts | 161° |
| 2026-05-05 17:51 | 53.07320 | -2.64067 | 33032 ft | 383 kts | 161° |
| 2026-05-05 17:51 | 53.02318 | -2.60979 | 33027 ft | 383 kts | 162° |
| 2026-05-05 17:52 | 52.97324 | -2.57904 | 33028 ft | 383 kts | 162° |
| 2026-05-05 17:52 | 52.92327 | -2.54833 | 33029 ft | 382 kts | 162° |
| 2026-05-05 17:53 | 52.87342 | -2.51777 | 33026 ft | 382 kts | 162° |
| 2026-05-05 17:53 | 52.82356 | -2.48726 | 33025 ft | 382 kts | 161° |
| 2026-05-05 17:54 | 52.77708 | -2.44458 | 33020 ft | 384 kts | 148° |
| 2026-05-05 17:54 | 52.73274 | -2.39462 | 32605 ft | 385 kts | 148° |
| 2026-05-05 17:54 | 52.71061 | -2.37000 | 32117 ft | 383 kts | 148° |
| 2026-05-05 17:55 | 52.68842 | -2.34563 | 31606 ft | 383 kts | 149° |
| 2026-05-05 17:55 | 52.66624 | -2.32142 | 31068 ft | 383 kts | 149° |
| 2026-05-05 17:55 | 52.64403 | -2.29711 | 30510 ft | 383 kts | 149° |
| 2026-05-05 17:55 | 52.62193 | -2.27282 | 30080 ft | 380 kts | 149° |
| 2026-05-05 17:56 | 52.60007 | -2.24876 | 29638 ft | 377 kts | 149° |
| 2026-05-05 17:56 | 52.57833 | -2.22486 | 29178 ft | 373 kts | 149° |
| 2026-05-05 17:56 | 52.55684 | -2.20127 | 28729 ft | 370 kts | 149° |
| 2026-05-05 17:56 | 52.53550 | -2.17789 | 28286 ft | 368 kts | 149° |
| 2026-05-05 17:57 | 52.51425 | -2.15462 | 27823 ft | 365 kts | 149° |
| 2026-05-05 17:57 | 52.49319 | -2.13160 | 27383 ft | 362 kts | 149° |
| 2026-05-05 17:57 | 52.47233 | -2.10882 | 26933 ft | 360 kts | 149° |
| 2026-05-05 17:57 | 52.45152 | -2.08612 | 26498 ft | 357 kts | 149° |
| 2026-05-05 17:58 | 52.43106 | -2.06384 | 26068 ft | 354 kts | 149° |
| 2026-05-05 17:58 | 52.41050 | -2.04148 | 25632 ft | 352 kts | 149° |
| 2026-05-05 17:58 | 52.39018 | -2.01937 | 25205 ft | 349 kts | 149° |
| 2026-05-05 17:58 | 52.36995 | -1.99738 | 24776 ft | 347 kts | 149° |
| 2026-05-05 17:59 | 52.35012 | -1.97584 | 24332 ft | 337 kts | 148° |
| 2026-05-05 17:59 | 52.33093 | -1.95503 | 23926 ft | 327 kts | 149° |
| 2026-05-05 17:59 | 52.31215 | -1.93470 | 23523 ft | 321 kts | 148° |
| 2026-05-05 17:59 | 52.29367 | -1.91473 | 23143 ft | 317 kts | 148° |
| 2026-05-05 18:00 | 52.27514 | -1.89476 | 22775 ft | 324 kts | 149° |
| 2026-05-05 18:00 | 52.25481 | -1.87672 | 22380 ft | 341 kts | 157° |
| 2026-05-05 18:00 | 52.23299 | -1.86127 | 21952 ft | 338 kts | 159° |
| 2026-05-05 18:00 | 52.21164 | -1.84672 | 21520 ft | 327 kts | 159° |
| 2026-05-05 18:01 | 52.19098 | -1.83272 | 21111 ft | 317 kts | 159° |
| 2026-05-05 18:01 | 52.17094 | -1.81909 | 20725 ft | 310 kts | 159° |
| 2026-05-05 18:01 | 52.15113 | -1.80552 | 20343 ft | 306 kts | 159° |
| 2026-05-05 18:01 | 52.13147 | -1.79201 | 19977 ft | 310 kts | 159° |
| 2026-05-05 18:02 | 52.11107 | -1.77801 | 19593 ft | 328 kts | 158° |
| 2026-05-05 18:02 | 52.08997 | -1.76348 | 19175 ft | 329 kts | 158° |
| 2026-05-05 18:02 | 52.06947 | -1.74932 | 18758 ft | 319 kts | 158° |
| 2026-05-05 18:02 | 52.04911 | -1.73525 | 18340 ft | 309 kts | 158° |
| 2026-05-05 18:03 | 52.02958 | -1.72178 | 17955 ft | 302 kts | 158° |
| 2026-05-05 18:03 | 52.01039 | -1.70856 | 17579 ft | 298 kts | 158° |
| 2026-05-05 18:03 | 51.99126 | -1.69541 | 17212 ft | 300 kts | 158° |
| 2026-05-05 18:03 | 51.97157 | -1.68189 | 16846 ft | 315 kts | 158° |
| 2026-05-05 18:04 | 51.95118 | -1.66788 | 16434 ft | 318 kts | 158° |
| 2026-05-05 18:04 | 51.93105 | -1.65405 | 16019 ft | 309 kts | 158° |
| 2026-05-05 18:04 | 51.91160 | -1.64070 | 15622 ft | 299 kts | 158° |
| 2026-05-05 18:04 | 51.89264 | -1.62771 | 15246 ft | 293 kts | 158° |
| 2026-05-05 18:05 | 51.87381 | -1.61457 | 15016 ft | 299 kts | 155° |
| 2026-05-05 18:05 | 51.85525 | -1.59820 | 14750 ft | 310 kts | 150° |
| 2026-05-05 18:05 | 51.83662 | -1.57986 | 14011 ft | 314 kts | 149° |
| 2026-05-05 18:05 | 51.81827 | -1.56143 | 13519 ft | 308 kts | 149° |
| 2026-05-05 18:06 | 51.80001 | -1.54329 | 13018 ft | 307 kts | 149° |
| 2026-05-05 18:06 | 51.78796 | -1.53145 | 12690 ft | 307 kts | 150° |
| 2026-05-05 18:06 | 51.76354 | -1.50770 | 12023 ft | 306 kts | 150° |
| 2026-05-05 18:06 | 51.74532 | -1.49011 | 11527 ft | 307 kts | 150° |
| 2026-05-05 18:07 | 51.72686 | -1.47236 | 11214 ft | 305 kts | 150° |
| 2026-05-05 18:07 | 51.70881 | -1.45505 | 11014 ft | 300 kts | 150° |
| 2026-05-05 18:07 | 51.69073 | -1.43826 | 10910 ft | 297 kts | 154° |
| 2026-05-05 18:07 | 51.67199 | -1.42542 | 10793 ft | 294 kts | 160° |
| 2026-05-05 18:08 | 51.65258 | -1.41427 | 10620 ft | 298 kts | 161° |
| 2026-05-05 18:08 | 51.63290 | -1.40335 | 10573 ft | 298 kts | 161° |
| 2026-05-05 18:08 | 51.61348 | -1.39249 | 10562 ft | 295 kts | 161° |
| 2026-05-05 18:08 | 51.59409 | -1.38146 | 10559 ft | 296 kts | 161° |
| 2026-05-05 18:09 | 51.57464 | -1.37028 | 10563 ft | 297 kts | 160° |
| 2026-05-05 18:09 | 51.55515 | -1.35898 | 10348 ft | 299 kts | 160° |
| 2026-05-05 18:09 | 51.53547 | -1.34752 | 10099 ft | 300 kts | 160° |
| 2026-05-05 18:09 | 51.51592 | -1.33611 | 9851 ft | 298 kts | 160° |
| 2026-05-05 18:10 | 51.49672 | -1.32487 | 9598 ft | 291 kts | 160° |
| 2026-05-05 18:10 | 51.47799 | -1.31391 | 9343 ft | 284 kts | 160° |
| 2026-05-05 18:10 | 51.45980 | -1.30328 | 9096 ft | 279 kts | 160° |
| 2026-05-05 18:10 | 51.44211 | -1.29294 | 8982 ft | 277 kts | 159° |
| 2026-05-05 18:11 | 51.42407 | -1.28241 | 8953 ft | 275 kts | 160° |
| 2026-05-05 18:11 | 51.40598 | -1.27185 | 8950 ft | 277 kts | 159° |
| 2026-05-05 18:11 | 51.38781 | -1.26125 | 8827 ft | 280 kts | 159° |
| 2026-05-05 18:11 | 51.36938 | -1.25052 | 8568 ft | 283 kts | 159° |
| 2026-05-05 18:12 | 51.35098 | -1.23982 | 8485 ft | 279 kts | 159° |
| 2026-05-05 18:12 | 51.33209 | -1.23203 | 8434 ft | 281 kts | 176° |
| 2026-05-05 18:12 | 51.31268 | -1.23305 | 8447 ft | 277 kts | 183° |
| 2026-05-05 18:12 | 51.29350 | -1.23511 | 8439 ft | 277 kts | 184° |
| 2026-05-05 18:13 | 51.27422 | -1.23708 | 8444 ft | 277 kts | 183° |
| 2026-05-05 18:13 | 51.25492 | -1.23885 | 8446 ft | 278 kts | 183° |
| 2026-05-05 18:13 | 51.23576 | -1.24047 | 8436 ft | 272 kts | 182° |
| 2026-05-05 18:13 | 51.21729 | -1.24199 | 8427 ft | 258 kts | 182° |
| 2026-05-05 18:14 | 51.19985 | -1.24343 | 8421 ft | 245 kts | 183° |
| 2026-05-05 18:14 | 51.18304 | -1.24764 | 8175 ft | 244 kts | 193° |
| 2026-05-05 18:14 | 51.16673 | -1.25457 | 7928 ft | 243 kts | 195° |
| 2026-05-05 18:14 | 51.15046 | -1.26191 | 7680 ft | 243 kts | 195° |
| 2026-05-05 18:15 | 51.13417 | -1.26919 | 7437 ft | 243 kts | 195° |
| 2026-05-05 18:15 | 51.11782 | -1.27634 | 7189 ft | 244 kts | 195° |
| 2026-05-05 18:15 | 51.10145 | -1.28344 | 6998 ft | 243 kts | 195° |
| 2026-05-05 18:15 | 51.08505 | -1.29045 | 6948 ft | 243 kts | 195° |
| 2026-05-05 18:16 | 51.06871 | -1.29739 | 6937 ft | 242 kts | 195° |
| 2026-05-05 18:16 | 51.05251 | -1.30426 | 6935 ft | 242 kts | 194° |
| 2026-05-05 18:16 | 51.03635 | -1.31160 | 6931 ft | 242 kts | 203° |
| 2026-05-05 18:16 | 51.02319 | -1.32768 | 6931 ft | 239 kts | 235° |
| 2026-05-05 18:17 | 51.01633 | -1.35142 | 6945 ft | 236 kts | 253° |
| 2026-05-05 18:17 | 51.01143 | -1.37640 | 6926 ft | 238 kts | 254° |
| 2026-05-05 18:17 | 51.00593 | -1.40056 | 6922 ft | 238 kts | 251° |
| 2026-05-05 18:17 | 50.99997 | -1.42511 | 6929 ft | 238 kts | 251° |
| 2026-05-05 18:18 | 50.99401 | -1.44942 | 6829 ft | 235 kts | 250° |
| 2026-05-05 18:18 | 50.98804 | -1.47364 | 6519 ft | 237 kts | 250° |
| 2026-05-05 18:18 | 50.97936 | -1.49595 | 6226 ft | 240 kts | 230° |
| 2026-05-05 18:18 | 50.96844 | -1.51574 | 5991 ft | 239 kts | 230° |
| 2026-05-05 18:19 | 50.95755 | -1.53561 | 5735 ft | 238 kts | 230° |
| 2026-05-05 18:19 | 50.94664 | -1.55551 | 5475 ft | 238 kts | 230° |
| 2026-05-05 18:19 | 50.93577 | -1.57530 | 5249 ft | 238 kts | 230° |
| 2026-05-05 18:19 | 50.92498 | -1.59497 | 5090 ft | 238 kts | 230° |
| 2026-05-05 18:20 | 50.91776 | -1.60811 | 5040 ft | 238 kts | 230° |
| 2026-05-05 18:20 | 50.90696 | -1.62778 | 5002 ft | 235 kts | 230° |
| 2026-05-05 18:20 | 50.89624 | -1.64726 | 5006 ft | 234 kts | 230° |
| 2026-05-05 18:20 | 50.88536 | -1.66697 | 5007 ft | 236 kts | 230° |
| 2026-05-05 18:21 | 50.87473 | -1.68683 | 4990 ft | 236 kts | 238° |
| 2026-05-05 18:21 | 50.86828 | -1.71009 | 4951 ft | 234 kts | 254° |
| 2026-05-05 18:21 | 50.86331 | -1.73480 | 4698 ft | 237 kts | 255° |
| 2026-05-05 18:21 | 50.85840 | -1.75978 | 4449 ft | 236 kts | 255° |
| 2026-05-05 18:22 | 50.85364 | -1.78451 | 4193 ft | 234 kts | 255° |
| 2026-05-05 18:22 | 50.84896 | -1.80922 | 3953 ft | 232 kts | 256° |
| 2026-05-05 18:22 | 50.84441 | -1.83312 | 3717 ft | 224 kts | 255° |
| 2026-05-05 18:22 | 50.83985 | -1.85664 | 3461 ft | 223 kts | 255° |
| 2026-05-05 18:23 | 50.83528 | -1.88019 | 3209 ft | 224 kts | 255° |
| 2026-05-05 18:23 | 50.83073 | -1.90375 | 2989 ft | 223 kts | 255° |
| 2026-05-05 18:23 | 50.82628 | -1.92691 | 2730 ft | 216 kts | 255° |
| 2026-05-05 18:23 | 50.82197 | -1.94929 | 2470 ft | 210 kts | 255° |
| 2026-05-05 18:24 | 50.81778 | -1.97113 | 2218 ft | 205 kts | 255° |
| 2026-05-05 18:24 | 50.81374 | -1.99224 | 2066 ft | 195 kts | 255° |
| 2026-05-05 18:24 | 50.80996 | -2.01189 | 2008 ft | 180 kts | 255° |
| 2026-05-05 18:24 | 50.80622 | -2.03056 | 2008 ft | 174 kts | 250° |
| 2026-05-05 18:25 | 50.79838 | -2.04447 | 2004 ft | 176 kts | 208° |
| 2026-05-05 18:25 | 50.79039 | -2.04749 | 2006 ft | 178 kts | 179° |
| 2026-05-05 18:25 | 50.77392 | -2.04416 | 2010 ft | 180 kts | 171° |
| 2026-05-05 18:25 | 50.76184 | -2.03931 | 1988 ft | 180 kts | 148° |
| 2026-05-05 18:26 | 50.75499 | -2.02406 | 2007 ft | 172 kts | 96° |
| 2026-05-05 18:26 | 50.75503 | -2.00570 | 2010 ft | 170 kts | 82° |
| 2026-05-05 18:26 | 50.75678 | -1.98708 | 2009 ft | 168 kts | 78° |
| 2026-05-05 18:26 | 50.75882 | -1.96914 | 2011 ft | 167 kts | 75° |
| 2026-05-05 18:27 | 50.76166 | -1.95159 | 2006 ft | 167 kts | 72° |
| 2026-05-05 18:27 | 50.76470 | -1.93386 | 2005 ft | 167 kts | 72° |
| 2026-05-05 18:27 | 50.76780 | -1.91627 | 2005 ft | 167 kts | 71° |
| 2026-05-05 18:27 | 50.77083 | -1.89843 | 1896 ft | 169 kts | 73° |
| 2026-05-05 18:28 | 50.77672 | -1.86271 | 1630 ft | 167 kts | 73° |
| 2026-05-05 18:28 | 50.77966 | -1.84497 | 1512 ft | 167 kts | 73° |
| 2026-05-05 18:28 | 50.78260 | -1.82720 | 1388 ft | 169 kts | 73° |
| 2026-05-05 18:29 | 50.78569 | -1.80878 | 1242 ft | 171 kts | 73° |
| 2026-05-05 18:29 | 50.78862 | -1.79099 | 1119 ft | 168 kts | 73° |
| 2026-05-05 18:29 | 50.79163 | -1.77282 | 1116 ft | 179 kts | 73° |
| 2026-05-05 18:29 | 50.79522 | -1.75160 | 1294 ft | 210 kts | 73° |
| 2026-05-05 18:30 | 50.79907 | -1.72911 | 1526 ft | 217 kts | 73° |
| 2026-05-05 18:30 | 50.80307 | -1.70567 | 1758 ft | 218 kts | 74° |
| 2026-05-05 18:30 | 50.80343 | -1.68185 | 1953 ft | 221 kts | 103° |
| 2026-05-05 18:30 | 50.79582 | -1.66117 | 2195 ft | 224 kts | 128° |
| 2026-05-05 18:31 | 50.78482 | -1.64338 | 2408 ft | 228 kts | 144° |
| 2026-05-05 18:31 | 50.76967 | -1.63546 | 2630 ft | 230 kts | 178° |
| 2026-05-05 18:31 | 50.75433 | -1.64159 | 2859 ft | 232 kts | 211° |
| 2026-05-05 18:31 | 50.74261 | -1.65847 | 3007 ft | 230 kts | 230° |
| 2026-05-05 18:32 | 50.73207 | -1.67778 | 2998 ft | 232 kts | 231° |
| 2026-05-05 18:32 | 50.72378 | -1.69919 | 2994 ft | 228 kts | 256° |
| 2026-05-05 18:32 | 50.72356 | -1.72361 | 3018 ft | 223 kts | 284° |
| 2026-05-05 18:32 | 50.72724 | -1.74747 | 3015 ft | 225 kts | 287° |
| 2026-05-05 18:33 | 50.73119 | -1.77136 | 3008 ft | 225 kts | 287° |
| 2026-05-05 18:33 | 50.73308 | -1.79587 | 2996 ft | 228 kts | 269° |
| 2026-05-05 18:33 | 50.73150 | -1.82080 | 3000 ft | 228 kts | 265° |
| 2026-05-05 18:33 | 50.72964 | -1.84566 | 2992 ft | 228 kts | 265° |
| 2026-05-05 18:34 | 50.72774 | -1.87054 | 2995 ft | 228 kts | 265° |
| 2026-05-05 18:34 | 50.72584 | -1.89524 | 2998 ft | 226 kts | 265° |
| 2026-05-05 18:34 | 50.72394 | -1.91972 | 3006 ft | 226 kts | 265° |
| 2026-05-05 18:34 | 50.72202 | -1.94449 | 3005 ft | 226 kts | 265° |
| 2026-05-05 18:35 | 50.72010 | -1.96910 | 3004 ft | 226 kts | 265° |
| 2026-05-05 18:35 | 50.71817 | -1.99374 | 2979 ft | 228 kts | 265° |
| 2026-05-05 18:35 | 50.71641 | -2.01875 | 2735 ft | 230 kts | 271° |
| 2026-05-05 18:35 | 50.72017 | -2.04250 | 2478 ft | 222 kts | 303° |
| 2026-05-05 18:36 | 50.73118 | -2.05838 | 2241 ft | 213 kts | 336° |
| 2026-05-05 18:36 | 50.74534 | -2.06446 | 2038 ft | 210 kts | 349° |
| 2026-05-05 18:36 | 50.75969 | -2.06888 | 1806 ft | 208 kts | 350° |